Observations for Trim Market St
| Time | AQI | Temp °C | Hum % | Pres Pa | CO μg/m³ | H₂S μg/m³ | NO μg/m³ | NO₂ μg/m³ | O₃ μg/m³ | SO₂ μg/m³ | PM1 μg/m³ | PM2.5 μg/m³ | PM10 μg/m³ |
|---|---|---|---|---|---|---|---|---|---|---|---|---|---|
| Saturday 11 July 2026 | |||||||||||||
| 08:35 | 1 | 28.2 | 41 | 65,147 | 0 | 0 | 0 | 0 | 0 | 0 | 0 | 2.33 | 2.56 |
| 08:34 | 1 | 28.2 | 41 | 65,060 | 0 | 0 | 0 | 0 | 22.25 | 0 | 0 | 2.85 | 3.13 |
| 08:33 | 1 | 28 | 41 | 64,971 | 0.1 | 0 | 0 | 0 | 0 | 0 | 0 | 2.84 | 3.12 |
| 08:32 | 1 | 27.9 | 41 | 64,856 | 0.09 | 0 | 0 | 0 | 11.62 | 0 | 0 | 2.82 | 3.1 |
| 08:31 | 1 | 27.8 | 41 | 64,746 | 0.06 | 0 | 0 | 0 | 9.6 | 0 | 0 | 2.82 | 3.1 |
| 08:30 | 1 | 27.6 | 42 | 64,655 | 0.05 | 0 | 0 | 0 | 20.91 | 0 | 0 | 2.29 | 2.52 |
| 08:29 | 1 | 27.5 | 42 | 64,511 | 0.02 | 0 | 0 | 0 | 3.57 | 0 | 0 | 2.81 | 3.09 |
| 08:28 | 1 | 27.3 | 42 | 64,414 | 0 | 0 | 0 | 0 | 22.53 | 0 | 0 | 2.28 | 2.51 |
| 08:27 | 1 | 27.2 | 42 | 64,419 | 0 | 0 | 0 | 0 | 16.85 | 0 | 0 | 2.8 | 3.09 |
| 08:26 | 1 | 27.1 | 42 | 64,366 | 0 | 0 | 0 | 0 | 11.36 | 0 | 0 | 2.8 | 3.56 |
| 08:25 | 1 | 27 | 42 | 64,325 | 0 | 0 | 0 | 0 | 13.46 | 0 | 0 | 2.27 | 2.5 |
| 08:24 | 1 | 26.9 | 42 | 64,272 | 0 | 0 | 0 | 0 | 3.09 | 0 | 0.71 | 3.31 | 3.57 |
| 08:23 | 1 | 26.8 | 42 | 64,205 | 0.02 | 0 | 0 | 0 | 4.04 | 0 | 0.71 | 2.77 | 3.05 |
| 08:20 | 1 | 26.6 | 43 | 64,066 | 0.04 | 0 | 0 | 0 | 2.4 | 0 | 0 | 2.24 | 2.46 |
| 08:17 | 1 | 26.4 | 43 | 63,853 | 0 | 0 | 0 | 0 | 16.82 | 0 | 0 | 2.76 | 3.03 |
| 08:16 | 1 | 26.3 | 43 | 63,791 | 0 | 0 | 0 | 0 | 5.09 | 0 | 0 | 3.28 | 3.59 |
| 08:14 | 1 | 26.2 | 43 | 63,679 | 0 | 0 | 0 | 0 | 0.94 | 0 | 0 | 3.26 | 3.59 |
| 08:05 | 1 | 25.6 | 45 | 62,707 | 0.12 | 0 | 0 | 0 | 5 | 0 | 0.71 | 3.7 | 4.07 |
| 08:04 | 1 | 25.5 | 45 | 62,586 | 0 | 0 | 0 | 0 | 11.36 | 0 | 0.71 | 3.18 | 3.49 |
| 08:03 | 1 | 25.4 | 45 | 62,547 | 0 | 0 | 0 | 0 | 11.82 | 0 | 0 | 2.13 | 2.35 |